Amity, Oregon
Current Conditions -  °F | °C
As of 10:53 PM on Wednesday 22 Oct 2014 (Local Time) from KMMV Reporting Station
Overcast Overcast  
Wind Chill: 12°   Ceiling: 7500
Heat Index: 12°   Visibility: 10mi
Dew Point: 11°   Wind: 0mph
Humidity: 90%   Direction: NA
Pressure: 29.78"   Gusts: NA
Location:  45.12°N, 123.21°W
Report Text: KMMV 230553Z AUTO 00000KT 10SM BKN075 OVC085 12/11 A2978 RMK AO2 RAE46 SLP082 P0003 60016 T01220106 10150 20117 51023
Loading
Personal Weather Stations






























Interactive Weather Map
Tropical Storm Tracking
New forecast layout! Learn more

10-Day Weather Forecast

Advertisements
Track Severe Weather on mobile